sensor_id;sensor_type;location;lat;lon;timestamp;P1;durP1;ratioP1;P2;durP2;ratioP2
25083;SDS011;13075;55.682;37.564;2022-09-27T00:01:59;7.22;;;4.93;;
25083;SDS011;13075;55.682;37.564;2022-09-27T00:04:25;7.30;;;4.97;;
25083;SDS011;13075;55.682;37.564;2022-09-27T00:06:51;11.27;;;5.10;;
25083;SDS011;13075;55.682;37.564;2022-09-27T00:09:17;6.55;;;4.47;;
25083;SDS011;13075;55.682;37.564;2022-09-27T00:11:43;8.23;;;5.03;;
25083;SDS011;13075;55.682;37.564;2022-09-27T00:14:10;9.23;;;4.70;;
25083;SDS011;13075;55.682;37.564;2022-09-27T00:16:38;8.13;;;4.93;;
25083;SDS011;13075;55.682;37.564;2022-09-27T00:19:06;8.13;;;5.25;;
25083;SDS011;13075;55.682;37.564;2022-09-27T00:21:40;14.00;;;5.18;;
25083;SDS011;13075;55.682;37.564;2022-09-27T00:24:08;10.30;;;5.65;;
25083;SDS011;13075;55.682;37.564;2022-09-27T00:26:37;7.90;;;4.35;;
25083;SDS011;13075;55.682;37.564;2022-09-27T00:29:02;6.25;;;4.80;;
25083;SDS011;13075;55.682;37.564;2022-09-27T00:31:29;7.82;;;4.57;;
25083;SDS011;13075;55.682;37.564;2022-09-27T00:33:59;6.63;;;5.03;;
25083;SDS011;13075;55.682;37.564;2022-09-27T00:36:26;13.02;;;5.75;;
25083;SDS011;13075;55.682;37.564;2022-09-27T00:38:54;9.82;;;5.05;;
25083;SDS011;13075;55.682;37.564;2022-09-27T00:43:51;10.27;;;5.55;;
25083;SDS011;13075;55.682;37.564;2022-09-27T00:48:54;6.82;;;5.32;;
25083;SDS011;13075;55.682;37.564;2022-09-27T00:51:26;9.00;;;5.03;;
25083;SDS011;13075;55.682;37.564;2022-09-27T00:53:52;8.55;;;4.90;;
25083;SDS011;13075;55.682;37.564;2022-09-27T00:56:22;8.20;;;4.95;;
25083;SDS011;13075;55.682;37.564;2022-09-27T00:58:53;8.50;;;5.68;;
25083;SDS011;13075;55.682;37.564;2022-09-27T01:01:23;8.55;;;5.22;;
25083;SDS011;13075;55.682;37.564;2022-09-27T01:03:59;8.00;;;5.43;;
25083;SDS011;13075;55.682;37.564;2022-09-27T01:06:30;8.48;;;5.20;;
25083;SDS011;13075;55.682;37.564;2022-09-27T01:08:56;10.30;;;5.47;;
25083;SDS011;13075;55.682;37.564;2022-09-27T01:29:11;10.45;;;5.40;;
25083;SDS011;13075;55.682;37.564;2022-09-27T01:31:51;7.70;;;5.00;;
25083;SDS011;13075;55.682;37.564;2022-09-27T01:39:35;8.38;;;4.78;;
25083;SDS011;13075;55.682;37.564;2022-09-27T01:42:41;9.13;;;5.22;;
25083;SDS011;13075;55.682;37.564;2022-09-27T01:45:37;9.75;;;4.80;;
25083;SDS011;13075;55.682;37.564;2022-09-27T01:48:23;6.53;;;4.45;;
25083;SDS011;13075;55.682;37.564;2022-09-27T01:51:10;7.95;;;4.78;;
25083;SDS011;13075;55.682;37.564;2022-09-27T01:53:47;8.85;;;5.38;;
25083;SDS011;13075;55.682;37.564;2022-09-27T01:56:45;7.72;;;5.40;;
25083;SDS011;13075;55.682;37.564;2022-09-27T01:59:21;6.70;;;4.93;;
25083;SDS011;13075;55.682;37.564;2022-09-27T02:02:06;14.70;;;5.43;;
25083;SDS011;13075;55.682;37.564;2022-09-27T02:04:57;10.10;;;5.25;;
25083;SDS011;13075;55.682;37.564;2022-09-27T02:07:32;8.68;;;5.18;;
25083;SDS011;13075;55.682;37.564;2022-09-27T02:10:34;8.27;;;4.95;;
25083;SDS011;13075;55.682;37.564;2022-09-27T02:13:20;11.52;;;5.07;;
25083;SDS011;13075;55.682;37.564;2022-09-27T02:21:52;8.57;;;5.47;;
25083;SDS011;13075;55.682;37.564;2022-09-27T02:24:20;6.97;;;4.57;;
25083;SDS011;13075;55.682;37.564;2022-09-27T02:27:02;8.88;;;4.35;;
25083;SDS011;13075;55.682;37.564;2022-09-27T02:30:14;9.35;;;4.55;;
25083;SDS011;13075;55.682;37.564;2022-09-27T02:32:45;7.22;;;4.75;;
25083;SDS011;13075;55.682;37.564;2022-09-27T02:35:24;7.38;;;4.63;;
25083;SDS011;13075;55.682;37.564;2022-09-27T02:37:54;8.38;;;4.50;;
25083;SDS011;13075;55.682;37.564;2022-09-27T02:40:20;8.00;;;5.93;;
25083;SDS011;13075;55.682;37.564;2022-09-27T02:42:47;8.38;;;6.10;;
25083;SDS011;13075;55.682;37.564;2022-09-27T02:45:13;10.55;;;5.65;;
25083;SDS011;13075;55.682;37.564;2022-09-27T02:47:56;6.82;;;4.20;;
25083;SDS011;13075;55.682;37.564;2022-09-27T02:53:34;9.13;;;5.05;;
25083;SDS011;13075;55.682;37.564;2022-09-27T02:56:49;9.07;;;4.95;;
25083;SDS011;13075;55.682;37.564;2022-09-27T03:05:28;6.95;;;4.88;;
25083;SDS011;13075;55.682;37.564;2022-09-27T03:07:58;7.88;;;5.07;;
25083;SDS011;13075;55.682;37.564;2022-09-27T03:10:25;7.18;;;5.07;;
25083;SDS011;13075;55.682;37.564;2022-09-27T03:12:53;9.80;;;5.05;;
25083;SDS011;13075;55.682;37.564;2022-09-27T03:15:21;9.45;;;5.03;;
25083;SDS011;13075;55.682;37.564;2022-09-27T03:18:10;7.82;;;4.63;;
25083;SDS011;13075;55.682;37.564;2022-09-27T03:21:01;8.05;;;4.45;;
25083;SDS011;13075;55.682;37.564;2022-09-27T03:23:27;6.72;;;4.40;;
25083;SDS011;13075;55.682;37.564;2022-09-27T03:25:53;5.88;;;4.90;;
25083;SDS011;13075;55.682;37.564;2022-09-27T03:28:19;9.77;;;6.00;;
25083;SDS011;13075;55.682;37.564;2022-09-27T03:30:46;6.35;;;4.63;;
25083;SDS011;13075;55.682;37.564;2022-09-27T03:33:22;8.07;;;5.78;;
25083;SDS011;13075;55.682;37.564;2022-09-27T03:35:53;8.85;;;4.85;;
25083;SDS011;13075;55.682;37.564;2022-09-27T03:38:18;10.50;;;5.60;;
25083;SDS011;13075;55.682;37.564;2022-09-27T03:40:44;12.02;;;4.88;;
25083;SDS011;13075;55.682;37.564;2022-09-27T03:43:10;11.73;;;7.28;;
25083;SDS011;13075;55.682;37.564;2022-09-27T03:45:36;7.82;;;4.82;;
25083;SDS011;13075;55.682;37.564;2022-09-27T03:48:05;8.48;;;5.80;;
25083;SDS011;13075;55.682;37.564;2022-09-27T03:50:31;7.93;;;5.63;;
25083;SDS011;13075;55.682;37.564;2022-09-27T03:52:56;15.05;;;5.78;;
25083;SDS011;13075;55.682;37.564;2022-09-27T03:55:24;10.52;;;5.93;;
25083;SDS011;13075;55.682;37.564;2022-09-27T03:57:50;8.32;;;6.13;;
25083;SDS011;13075;55.682;37.564;2022-09-27T04:00:17;9.07;;;6.22;;
25083;SDS011;13075;55.682;37.564;2022-09-27T04:02:43;9.88;;;5.75;;
25083;SDS011;13075;55.682;37.564;2022-09-27T04:05:20;10.52;;;6.00;;
25083;SDS011;13075;55.682;37.564;2022-09-27T04:07:47;16.98;;;6.63;;
25083;SDS011;13075;55.682;37.564;2022-09-27T04:10:14;8.00;;;5.40;;
25083;SDS011;13075;55.682;37.564;2022-09-27T04:12:41;9.88;;;6.68;;
25083;SDS011;13075;55.682;37.564;2022-09-27T04:15:07;6.93;;;5.47;;
25083;SDS011;13075;55.682;37.564;2022-09-27T04:18:00;10.10;;;5.07;;
25083;SDS011;13075;55.682;37.564;2022-09-27T04:20:32;9.93;;;5.25;;
25083;SDS011;13075;55.682;37.564;2022-09-27T04:23:02;7.75;;;5.05;;
25083;SDS011;13075;55.682;37.564;2022-09-27T04:25:29;15.68;;;11.07;;
25083;SDS011;13075;55.682;37.564;2022-09-27T04:27:59;10.73;;;6.70;;
25083;SDS011;13075;55.682;37.564;2022-09-27T04:30:26;10.93;;;5.75;;
25083;SDS011;13075;55.682;37.564;2022-09-27T04:33:05;10.30;;;6.18;;
25083;SDS011;13075;55.682;37.564;2022-09-27T04:35:42;11.20;;;5.82;;
25083;SDS011;13075;55.682;37.564;2022-09-27T04:38:27;12.57;;;6.85;;
25083;SDS011;13075;55.682;37.564;2022-09-27T04:40:53;13.02;;;7.43;;
25083;SDS011;13075;55.682;37.564;2022-09-27T04:43:19;15.98;;;5.97;;
25083;SDS011;13075;55.682;37.564;2022-09-27T04:45:45;14.68;;;6.47;;
25083;SDS011;13075;55.682;37.564;2022-09-27T04:48:11;11.10;;;6.30;;
25083;SDS011;13075;55.682;37.564;2022-09-27T04:50:37;14.98;;;7.60;;
25083;SDS011;13075;55.682;37.564;2022-09-27T04:53:04;9.75;;;6.38;;
25083;SDS011;13075;55.682;37.564;2022-09-27T04:55:30;16.27;;;7.90;;
25083;SDS011;13075;55.682;37.564;2022-09-27T04:57:57;9.50;;;5.65;;
25083;SDS011;13075;55.682;37.564;2022-09-27T05:00:26;8.13;;;6.25;;
25083;SDS011;13075;55.682;37.564;2022-09-27T05:03:00;8.60;;;7.07;;
25083;SDS011;13075;55.682;37.564;2022-09-27T05:05:41;13.15;;;7.00;;
25083;SDS011;13075;55.682;37.564;2022-09-27T05:08:06;11.02;;;6.85;;
25083;SDS011;13075;55.682;37.564;2022-09-27T05:10:52;10.98;;;6.22;;
25083;SDS011;13075;55.682;37.564;2022-09-27T05:13:19;11.85;;;6.30;;
25083;SDS011;13075;55.682;37.564;2022-09-27T05:15:45;14.65;;;7.15;;
25083;SDS011;13075;55.682;37.564;2022-09-27T05:18:29;10.38;;;6.68;;
25083;SDS011;13075;55.682;37.564;2022-09-27T05:21:18;10.45;;;7.40;;
25083;SDS011;13075;55.682;37.564;2022-09-27T05:23:45;11.77;;;6.00;;
25083;SDS011;13075;55.682;37.564;2022-09-27T05:26:11;9.80;;;7.20;;
25083;SDS011;13075;55.682;37.564;2022-09-27T05:28:36;10.82;;;6.82;;
25083;SDS011;13075;55.682;37.564;2022-09-27T05:31:02;7.03;;;5.47;;
25083;SDS011;13075;55.682;37.564;2022-09-27T05:33:28;8.48;;;5.90;;
25083;SDS011;13075;55.682;37.564;2022-09-27T05:36:12;11.05;;;6.22;;
25083;SDS011;13075;55.682;37.564;2022-09-27T05:38:39;12.73;;;5.65;;
25083;SDS011;13075;55.682;37.564;2022-09-27T05:41:06;10.82;;;6.43;;
25083;SDS011;13075;55.682;37.564;2022-09-27T05:43:33;9.60;;;7.72;;
25083;SDS011;13075;55.682;37.564;2022-09-27T05:46:00;10.13;;;5.47;;
25083;SDS011;13075;55.682;37.564;2022-09-27T05:48:27;11.30;;;7.93;;
25083;SDS011;13075;55.682;37.564;2022-09-27T05:50:59;12.55;;;8.40;;
25083;SDS011;13075;55.682;37.564;2022-09-27T05:53:24;17.67;;;7.70;;
25083;SDS011;13075;55.682;37.564;2022-09-27T05:55:51;8.70;;;6.15;;
25083;SDS011;13075;55.682;37.564;2022-09-27T05:58:23;12.40;;;7.32;;
25083;SDS011;13075;55.682;37.564;2022-09-27T06:01:00;10.88;;;7.13;;
25083;SDS011;13075;55.682;37.564;2022-09-27T06:03:54;9.45;;;6.68;;
25083;SDS011;13075;55.682;37.564;2022-09-27T06:06:39;10.75;;;7.32;;
25083;SDS011;13075;55.682;37.564;2022-09-27T06:09:08;20.92;;;7.25;;
25083;SDS011;13075;55.682;37.564;2022-09-27T06:11:35;13.80;;;6.60;;
25083;SDS011;13075;55.682;37.564;2022-09-27T06:14:01;9.88;;;7.05;;
25083;SDS011;13075;55.682;37.564;2022-09-27T06:16:31;17.40;;;7.97;;
25083;SDS011;13075;55.682;37.564;2022-09-27T06:18:58;13.73;;;7.43;;
25083;SDS011;13075;55.682;37.564;2022-09-27T06:21:24;9.05;;;6.63;;
25083;SDS011;13075;55.682;37.564;2022-09-27T06:23:55;10.45;;;7.13;;
25083;SDS011;13075;55.682;37.564;2022-09-27T06:26:29;11.98;;;7.43;;
25083;SDS011;13075;55.682;37.564;2022-09-27T06:29:08;14.40;;;7.70;;
25083;SDS011;13075;55.682;37.564;2022-09-27T06:31:37;13.23;;;6.30;;
25083;SDS011;13075;55.682;37.564;2022-09-27T06:34:34;13.75;;;7.75;;
25083;SDS011;13075;55.682;37.564;2022-09-27T06:37:00;14.98;;;9.48;;
25083;SDS011;13075;55.682;37.564;2022-09-27T06:39:27;16.20;;;8.88;;
25083;SDS011;13075;55.682;37.564;2022-09-27T06:42:21;12.02;;;8.63;;
25083;SDS011;13075;55.682;37.564;2022-09-27T06:45:13;16.95;;;8.90;;
25083;SDS011;13075;55.682;37.564;2022-09-27T06:48:14;12.00;;;9.55;;
25083;SDS011;13075;55.682;37.564;2022-09-27T06:50:52;16.85;;;8.82;;
25083;SDS011;13075;55.682;37.564;2022-09-27T06:53:18;14.63;;;9.73;;
25083;SDS011;13075;55.682;37.564;2022-09-27T06:55:44;12.18;;;8.68;;
25083;SDS011;13075;55.682;37.564;2022-09-27T06:58:10;11.93;;;9.43;;
25083;SDS011;13075;55.682;37.564;2022-09-27T07:01:27;16.48;;;10.90;;
25083;SDS011;13075;55.682;37.564;2022-09-27T07:04:12;12.00;;;8.48;;
25083;SDS011;13075;55.682;37.564;2022-09-27T07:06:56;17.23;;;10.43;;
25083;SDS011;13075;55.682;37.564;2022-09-27T07:09:24;17.92;;;12.30;;
25083;SDS011;13075;55.682;37.564;2022-09-27T07:11:50;8.40;;;7.28;;
25083;SDS011;13075;55.682;37.564;2022-09-27T07:14:15;8.27;;;6.60;;
25083;SDS011;13075;55.682;37.564;2022-09-27T07:16:42;9.10;;;8.20;;
25083;SDS011;13075;55.682;37.564;2022-09-27T07:19:08;12.30;;;8.20;;
25083;SDS011;13075;55.682;37.564;2022-09-27T07:21:36;12.20;;;9.23;;
25083;SDS011;13075;55.682;37.564;2022-09-27T07:24:02;12.55;;;9.35;;
25083;SDS011;13075;55.682;37.564;2022-09-27T07:26:28;14.80;;;9.43;;
25083;SDS011;13075;55.682;37.564;2022-09-27T07:28:54;16.00;;;11.45;;
25083;SDS011;13075;55.682;37.564;2022-09-27T07:31:21;10.05;;;8.32;;
25083;SDS011;13075;55.682;37.564;2022-09-27T07:33:48;19.45;;;10.50;;
25083;SDS011;13075;55.682;37.564;2022-09-27T07:36:14;14.05;;;9.73;;
25083;SDS011;13075;55.682;37.564;2022-09-27T07:38:42;14.10;;;9.35;;
25083;SDS011;13075;55.682;37.564;2022-09-27T07:41:09;13.40;;;10.85;;
25083;SDS011;13075;55.682;37.564;2022-09-27T07:43:39;13.02;;;10.93;;
25083;SDS011;13075;55.682;37.564;2022-09-27T07:46:05;13.50;;;11.65;;
25083;SDS011;13075;55.682;37.564;2022-09-27T07:48:52;13.88;;;11.57;;
25083;SDS011;13075;55.682;37.564;2022-09-27T07:51:47;10.68;;;8.82;;
25083;SDS011;13075;55.682;37.564;2022-09-27T07:57:23;11.82;;;7.50;;
25083;SDS011;13075;55.682;37.564;2022-09-27T07:59:51;12.05;;;10.43;;
25083;SDS011;13075;55.682;37.564;2022-09-27T08:02:19;13.68;;;9.30;;
25083;SDS011;13075;55.682;37.564;2022-09-27T08:04:47;13.18;;;10.88;;
25083;SDS011;13075;55.682;37.564;2022-09-27T08:07:13;12.52;;;9.88;;
25083;SDS011;13075;55.682;37.564;2022-09-27T08:09:40;15.02;;;9.80;;
25083;SDS011;13075;55.682;37.564;2022-09-27T08:12:06;12.88;;;9.45;;
25083;SDS011;13075;55.682;37.564;2022-09-27T08:14:32;16.23;;;9.30;;
25083;SDS011;13075;55.682;37.564;2022-09-27T08:16:58;11.20;;;9.73;;
25083;SDS011;13075;55.682;37.564;2022-09-27T08:19:34;13.90;;;9.68;;
25083;SDS011;13075;55.682;37.564;2022-09-27T08:22:00;15.93;;;10.38;;
25083;SDS011;13075;55.682;37.564;2022-09-27T08:24:52;16.88;;;9.40;;
25083;SDS011;13075;55.682;37.564;2022-09-27T08:27:36;14.15;;;9.82;;
25083;SDS011;13075;55.682;37.564;2022-09-27T08:30:15;20.45;;;10.65;;
25083;SDS011;13075;55.682;37.564;2022-09-27T08:32:43;15.88;;;8.55;;
25083;SDS011;13075;55.682;37.564;2022-09-27T08:35:09;14.75;;;9.38;;
25083;SDS011;13075;55.682;37.564;2022-09-27T08:37:34;11.82;;;8.50;;
25083;SDS011;13075;55.682;37.564;2022-09-27T08:40:00;12.20;;;8.60;;
25083;SDS011;13075;55.682;37.564;2022-09-27T08:47:44;15.35;;;9.02;;
25083;SDS011;13075;55.682;37.564;2022-09-27T08:50:24;12.50;;;8.00;;
25083;SDS011;13075;55.682;37.564;2022-09-27T08:53:13;6.43;;;5.03;;
25083;SDS011;13075;55.682;37.564;2022-09-27T08:55:47;7.00;;;5.38;;
25083;SDS011;13075;55.682;37.564;2022-09-27T08:58:33;13.07;;;5.50;;
25083;SDS011;13075;55.682;37.564;2022-09-27T09:01:05;10.57;;;6.63;;
25083;SDS011;13075;55.682;37.564;2022-09-27T09:03:53;9.55;;;5.68;;
25083;SDS011;13075;55.682;37.564;2022-09-27T09:06:22;6.15;;;4.93;;
25083;SDS011;13075;55.682;37.564;2022-09-27T09:14:33;4.65;;;2.50;;
25083;SDS011;13075;55.682;37.564;2022-09-27T09:17:16;3.80;;;2.95;;
25083;SDS011;13075;55.682;37.564;2022-09-27T09:20:18;3.10;;;2.80;;
25083;SDS011;13075;55.682;37.564;2022-09-27T09:25:35;3.33;;;2.70;;
25083;SDS011;13075;55.682;37.564;2022-09-27T09:33:40;4.47;;;3.17;;
25083;SDS011;13075;55.682;37.564;2022-09-27T09:36:36;6.03;;;3.35;;
25083;SDS011;13075;55.682;37.564;2022-09-27T09:42:01;6.70;;;4.35;;
25083;SDS011;13075;55.682;37.564;2022-09-27T09:44:42;5.55;;;4.82;;
25083;SDS011;13075;55.682;37.564;2022-09-27T09:47:36;7.50;;;5.00;;
25083;SDS011;13075;55.682;37.564;2022-09-27T09:52:42;3.83;;;3.45;;
25083;SDS011;13075;55.682;37.564;2022-09-27T09:57:52;4.13;;;2.80;;
25083;SDS011;13075;55.682;37.564;2022-09-27T10:00:23;5.75;;;3.05;;
25083;SDS011;13075;55.682;37.564;2022-09-27T10:02:52;6.28;;;2.60;;
25083;SDS011;13075;55.682;37.564;2022-09-27T10:05:21;3.67;;;3.00;;
25083;SDS011;13075;55.682;37.564;2022-09-27T10:07:56;4.50;;;2.55;;
25083;SDS011;13075;55.682;37.564;2022-09-27T10:10:25;3.10;;;2.60;;
25083;SDS011;13075;55.682;37.564;2022-09-27T10:13:30;2.17;;;1.98;;
25083;SDS011;13075;55.682;37.564;2022-09-27T10:16:07;2.97;;;1.80;;
25083;SDS011;13075;55.682;37.564;2022-09-27T10:18:35;4.32;;;3.10;;
25083;SDS011;13075;55.682;37.564;2022-09-27T10:21:05;5.68;;;2.65;;
25083;SDS011;13075;55.682;37.564;2022-09-27T10:24:01;8.07;;;4.85;;
25083;SDS011;13075;55.682;37.564;2022-09-27T10:26:57;5.35;;;3.20;;
25083;SDS011;13075;55.682;37.564;2022-09-27T10:29:30;3.38;;;2.42;;
25083;SDS011;13075;55.682;37.564;2022-09-27T10:31:58;4.45;;;2.83;;
25083;SDS011;13075;55.682;37.564;2022-09-27T10:34:35;4.07;;;2.83;;
25083;SDS011;13075;55.682;37.564;2022-09-27T10:39:40;5.00;;;2.75;;
25083;SDS011;13075;55.682;37.564;2022-09-27T10:44:55;4.55;;;2.83;;
25083;SDS011;13075;55.682;37.564;2022-09-27T10:47:35;4.15;;;2.70;;
25083;SDS011;13075;55.682;37.564;2022-09-27T10:50:24;2.78;;;2.42;;
25083;SDS011;13075;55.682;37.564;2022-09-27T10:53:03;5.65;;;2.88;;
25083;SDS011;13075;55.682;37.564;2022-09-27T10:55:58;4.05;;;2.50;;
25083;SDS011;13075;55.682;37.564;2022-09-27T11:01:00;6.93;;;3.95;;
25083;SDS011;13075;55.682;37.564;2022-09-27T11:07:01;2.20;;;1.67;;
25083;SDS011;13075;55.682;37.564;2022-09-27T11:09:31;9.52;;;3.13;;
25083;SDS011;13075;55.682;37.564;2022-09-27T11:12:05;9.55;;;2.67;;
25083;SDS011;13075;55.682;37.564;2022-09-27T11:14:35;6.90;;;2.70;;
25083;SDS011;13075;55.682;37.564;2022-09-27T11:17:07;6.85;;;2.55;;
25083;SDS011;13075;55.682;37.564;2022-09-27T11:33:50;5.20;;;2.40;;
25083;SDS011;13075;55.682;37.564;2022-09-27T11:39:32;3.92;;;2.35;;
25083;SDS011;13075;55.682;37.564;2022-09-27T11:47:39;5.07;;;3.17;;
25083;SDS011;13075;55.682;37.564;2022-09-27T11:58:54;2.50;;;2.05;;
25083;SDS011;13075;55.682;37.564;2022-09-27T12:02:10;7.88;;;2.47;;
25083;SDS011;13075;55.682;37.564;2022-09-27T12:07:34;4.85;;;3.63;;
25083;SDS011;13075;55.682;37.564;2022-09-27T12:10:09;4.32;;;2.67;;
25083;SDS011;13075;55.682;37.564;2022-09-27T12:12:39;8.50;;;3.80;;
25083;SDS011;13075;55.682;37.564;2022-09-27T12:15:13;8.00;;;2.60;;
25083;SDS011;13075;55.682;37.564;2022-09-27T12:17:44;3.70;;;2.88;;
25083;SDS011;13075;55.682;37.564;2022-09-27T12:20:24;9.30;;;3.30;;
25083;SDS011;13075;55.682;37.564;2022-09-27T12:22:57;7.70;;;4.15;;
25083;SDS011;13075;55.682;37.564;2022-09-27T12:25:41;6.38;;;4.00;;
25083;SDS011;13075;55.682;37.564;2022-09-27T12:28:32;5.22;;;3.35;;
25083;SDS011;13075;55.682;37.564;2022-09-27T12:31:16;7.45;;;3.38;;
25083;SDS011;13075;55.682;37.564;2022-09-27T12:36:55;10.68;;;4.00;;
25083;SDS011;13075;55.682;37.564;2022-09-27T12:39:55;5.80;;;3.78;;
25083;SDS011;13075;55.682;37.564;2022-09-27T12:45:20;9.13;;;3.25;;
25083;SDS011;13075;55.682;37.564;2022-09-27T12:50:50;8.80;;;4.22;;
25083;SDS011;13075;55.682;37.564;2022-09-27T13:13:33;9.25;;;5.90;;
25083;SDS011;13075;55.682;37.564;2022-09-27T13:16:02;9.25;;;6.93;;
25083;SDS011;13075;55.682;37.564;2022-09-27T13:21:02;7.60;;;6.00;;
25083;SDS011;13075;55.682;37.564;2022-09-27T13:29:19;7.93;;;5.15;;
25083;SDS011;13075;55.682;37.564;2022-09-27T13:40:10;8.90;;;5.50;;
25083;SDS011;13075;55.682;37.564;2022-09-27T13:45:37;9.32;;;5.35;;
25083;SDS011;13075;55.682;37.564;2022-09-27T13:48:14;10.75;;;5.55;;
25083;SDS011;13075;55.682;37.564;2022-09-27T13:50:50;8.98;;;5.50;;
25083;SDS011;13075;55.682;37.564;2022-09-27T13:53:22;18.00;;;8.63;;
25083;SDS011;13075;55.682;37.564;2022-09-27T13:55:49;7.95;;;4.78;;
25083;SDS011;13075;55.682;37.564;2022-09-27T14:01:28;8.80;;;4.68;;
25083;SDS011;13075;55.682;37.564;2022-09-27T14:04:13;9.55;;;4.55;;
25083;SDS011;13075;55.682;37.564;2022-09-27T14:09:19;7.80;;;4.10;;
25083;SDS011;13075;55.682;37.564;2022-09-27T14:12:10;5.18;;;4.30;;
25083;SDS011;13075;55.682;37.564;2022-09-27T14:14:40;7.20;;;4.38;;
25083;SDS011;13075;55.682;37.564;2022-09-27T14:17:07;5.88;;;3.63;;
25083;SDS011;13075;55.682;37.564;2022-09-27T14:19:37;5.72;;;4.13;;
25083;SDS011;13075;55.682;37.564;2022-09-27T14:22:16;8.13;;;3.75;;
25083;SDS011;13075;55.682;37.564;2022-09-27T14:25:11;5.95;;;3.33;;
25083;SDS011;13075;55.682;37.564;2022-09-27T14:27:42;9.63;;;3.75;;
25083;SDS011;13075;55.682;37.564;2022-09-27T14:35:29;4.55;;;2.80;;
25083;SDS011;13075;55.682;37.564;2022-09-27T14:38:16;7.05;;;2.85;;
25083;SDS011;13075;55.682;37.564;2022-09-27T14:41:00;4.15;;;3.47;;
25083;SDS011;13075;55.682;37.564;2022-09-27T14:43:27;7.53;;;3.10;;
25083;SDS011;13075;55.682;37.564;2022-09-27T14:45:58;6.53;;;3.55;;
25083;SDS011;13075;55.682;37.564;2022-09-27T14:48:28;3.50;;;3.17;;
25083;SDS011;13075;55.682;37.564;2022-09-27T14:51:00;4.65;;;3.72;;
25083;SDS011;13075;55.682;37.564;2022-09-27T14:53:30;5.13;;;4.33;;
25083;SDS011;13075;55.682;37.564;2022-09-27T14:55:58;6.65;;;4.50;;
25083;SDS011;13075;55.682;37.564;2022-09-27T14:58:25;8.02;;;4.93;;
25083;SDS011;13075;55.682;37.564;2022-09-27T15:00:53;14.95;;;3.97;;
25083;SDS011;13075;55.682;37.564;2022-09-27T15:03:20;8.38;;;4.85;;
25083;SDS011;13075;55.682;37.564;2022-09-27T15:05:50;11.02;;;3.88;;
25083;SDS011;13075;55.682;37.564;2022-09-27T15:08:17;7.25;;;4.07;;
25083;SDS011;13075;55.682;37.564;2022-09-27T15:10:44;7.70;;;3.80;;
25083;SDS011;13075;55.682;37.564;2022-09-27T15:13:13;14.02;;;4.82;;
25083;SDS011;13075;55.682;37.564;2022-09-27T15:15:41;18.88;;;4.50;;
25083;SDS011;13075;55.682;37.564;2022-09-27T15:20:54;9.50;;;4.05;;
25083;SDS011;13075;55.682;37.564;2022-09-27T15:23:27;8.93;;;3.65;;
25083;SDS011;13075;55.682;37.564;2022-09-27T15:25:56;6.88;;;4.25;;
25083;SDS011;13075;55.682;37.564;2022-09-27T15:28:27;6.80;;;4.70;;
25083;SDS011;13075;55.682;37.564;2022-09-27T15:30:56;11.20;;;4.75;;
25083;SDS011;13075;55.682;37.564;2022-09-27T15:33:27;8.10;;;4.28;;
25083;SDS011;13075;55.682;37.564;2022-09-27T15:35:59;4.32;;;3.35;;
25083;SDS011;13075;55.682;37.564;2022-09-27T15:38:34;11.57;;;5.15;;
25083;SDS011;13075;55.682;37.564;2022-09-27T15:41:08;9.45;;;4.80;;
25083;SDS011;13075;55.682;37.564;2022-09-27T15:43:53;9.63;;;4.65;;
25083;SDS011;13075;55.682;37.564;2022-09-27T15:46:33;9.63;;;5.25;;
25083;SDS011;13075;55.682;37.564;2022-09-27T15:51:41;10.93;;;6.30;;
25083;SDS011;13075;55.682;37.564;2022-09-27T15:54:08;8.23;;;5.43;;
25083;SDS011;13075;55.682;37.564;2022-09-27T15:56:34;9.82;;;4.60;;
25083;SDS011;13075;55.682;37.564;2022-09-27T15:59:00;10.38;;;4.68;;
25083;SDS011;13075;55.682;37.564;2022-09-27T16:01:26;14.43;;;5.65;;
25083;SDS011;13075;55.682;37.564;2022-09-27T16:03:52;11.57;;;5.32;;
25083;SDS011;13075;55.682;37.564;2022-09-27T16:06:17;14.63;;;6.03;;
25083;SDS011;13075;55.682;37.564;2022-09-27T16:08:43;13.32;;;5.05;;
25083;SDS011;13075;55.682;37.564;2022-09-27T16:11:11;13.85;;;5.18;;
25083;SDS011;13075;55.682;37.564;2022-09-27T16:13:38;6.82;;;5.43;;
25083;SDS011;13075;55.682;37.564;2022-09-27T16:16:04;7.63;;;5.05;;
25083;SDS011;13075;55.682;37.564;2022-09-27T16:18:29;21.75;;;5.47;;
25083;SDS011;13075;55.682;37.564;2022-09-27T16:20:57;14.90;;;5.40;;
25083;SDS011;13075;55.682;37.564;2022-09-27T16:23:23;8.52;;;5.38;;
25083;SDS011;13075;55.682;37.564;2022-09-27T16:25:51;9.02;;;5.90;;
25083;SDS011;13075;55.682;37.564;2022-09-27T16:28:17;12.80;;;4.75;;
25083;SDS011;13075;55.682;37.564;2022-09-27T16:30:42;10.05;;;5.22;;
25083;SDS011;13075;55.682;37.564;2022-09-27T16:33:09;8.98;;;5.85;;
25083;SDS011;13075;55.682;37.564;2022-09-27T16:35:37;12.40;;;4.70;;
25083;SDS011;13075;55.682;37.564;2022-09-27T16:38:05;7.70;;;4.47;;
25083;SDS011;13075;55.682;37.564;2022-09-27T16:40:31;9.38;;;4.35;;
25083;SDS011;13075;55.682;37.564;2022-09-27T16:42:57;11.52;;;4.07;;
25083;SDS011;13075;55.682;37.564;2022-09-27T16:45:22;9.07;;;4.95;;
25083;SDS011;13075;55.682;37.564;2022-09-27T16:47:57;7.47;;;4.32;;
25083;SDS011;13075;55.682;37.564;2022-09-27T16:50:23;7.20;;;4.32;;
25083;SDS011;13075;55.682;37.564;2022-09-27T16:53:07;12.15;;;4.88;;
25083;SDS011;13075;55.682;37.564;2022-09-27T16:55:34;7.57;;;4.18;;
25083;SDS011;13075;55.682;37.564;2022-09-27T16:58:00;11.50;;;4.22;;
25083;SDS011;13075;55.682;37.564;2022-09-27T17:00:27;13.80;;;5.07;;
25083;SDS011;13075;55.682;37.564;2022-09-27T17:02:55;9.25;;;4.72;;
25083;SDS011;13075;55.682;37.564;2022-09-27T17:05:21;10.00;;;4.93;;
25083;SDS011;13075;55.682;37.564;2022-09-27T17:07:50;8.73;;;4.72;;
25083;SDS011;13075;55.682;37.564;2022-09-27T17:10:18;7.80;;;4.38;;
25083;SDS011;13075;55.682;37.564;2022-09-27T17:12:44;9.23;;;5.50;;
25083;SDS011;13075;55.682;37.564;2022-09-27T17:15:11;15.43;;;4.78;;
25083;SDS011;13075;55.682;37.564;2022-09-27T17:17:37;6.53;;;4.55;;
25083;SDS011;13075;55.682;37.564;2022-09-27T17:20:03;5.97;;;4.30;;
25083;SDS011;13075;55.682;37.564;2022-09-27T17:22:29;11.55;;;5.35;;
25083;SDS011;13075;55.682;37.564;2022-09-27T17:24:55;7.63;;;4.75;;
25083;SDS011;13075;55.682;37.564;2022-09-27T17:27:22;10.93;;;5.43;;
25083;SDS011;13075;55.682;37.564;2022-09-27T17:29:49;6.72;;;4.85;;
25083;SDS011;13075;55.682;37.564;2022-09-27T17:32:14;5.10;;;4.53;;
25083;SDS011;13075;55.682;37.564;2022-09-27T17:34:40;6.60;;;5.20;;
25083;SDS011;13075;55.682;37.564;2022-09-27T17:37:08;8.57;;;5.32;;
25083;SDS011;13075;55.682;37.564;2022-09-27T17:39:35;10.18;;;5.35;;
25083;SDS011;13075;55.682;37.564;2022-09-27T17:42:01;11.77;;;5.28;;
25083;SDS011;13075;55.682;37.564;2022-09-27T17:44:26;11.75;;;5.63;;
25083;SDS011;13075;55.682;37.564;2022-09-27T17:46:52;9.77;;;5.20;;
25083;SDS011;13075;55.682;37.564;2022-09-27T17:52:20;11.63;;;4.85;;
25083;SDS011;13075;55.682;37.564;2022-09-27T17:54:47;10.32;;;6.05;;
25083;SDS011;13075;55.682;37.564;2022-09-27T17:57:13;6.82;;;5.10;;
25083;SDS011;13075;55.682;37.564;2022-09-27T17:59:38;17.10;;;6.75;;
25083;SDS011;13075;55.682;37.564;2022-09-27T18:02:04;12.30;;;5.68;;
25083;SDS011;13075;55.682;37.564;2022-09-27T18:04:30;11.70;;;6.85;;
25083;SDS011;13075;55.682;37.564;2022-09-27T18:06:56;8.13;;;5.68;;
25083;SDS011;13075;55.682;37.564;2022-09-27T18:09:21;9.15;;;4.72;;